Queenstown, South Africa
Current Conditions -  °F | °C
As of 5:32 PM on Friday 24 Oct 2014 (Local Time) from FAEL Reporting Station
Broken Clouds Broken Clouds  
Wind Chill: 64°   Ceiling: 4000
Heat Index: 64°   Visibility: 6mi
Dew Point: 63°   Wind: 12mph
Humidity: 94%   Direction: 210°SSW
Pressure: 30.03"   Gusts: NA
Location:  31.9°S, 26.88°E
Report Text: FAEL 241532Z 21010KT 190V250 9000 FEW005 SCT007 BKN040 18/17 Q1017 REDZ
Loading
Personal Weather Stations






























Interactive Weather Map
Tropical Storm Tracking
New forecast layout! Learn more

10-Day Weather Forecast

Advertisements
Track Severe Weather on mobile